KDMA/DMA METAR and TAF weather

Enter ICAO airport designator
Station Type Date Time Source
KDMA METAR 2019/06/16 05:58 UTC NOAA

KDMA 160558Z AUTO 25003KT 10SM CLR 27/02 A2991 RMK AO2 SLP080 T02740017 10364 20274 52021 $


Station Type Date Time Source
KDMA Decoded METAR 2019/06/16 05:58 UTC NOAA

Davis-Monthan Air Force Base, AZ, United States (KDMA) 32-10N 110-53W
Jun 16, 2019 - 01:58 AM EDT / 2019.06.16 0558 UTC
Wind: from the WSW (250 degrees) at 3 MPH (3 KT):0
Visibility: 10 mile(s):0
Sky conditions: clear
Temperature: 81.3 F (27.4 C)
Dew Point: 35.1 F (1.7 C)
Relative Humidity: 18%
Pressure (altimeter): 29.91 in. Hg (1012 hPa)
Pressure tendency: 0.06 inches (2.1 hPa) higher than three hours ago
ob: KDMA 160558Z AUTO 25003KT 10SM CLR 27/02 A2991 RMK AO2 SLP080 T02740017 10364 20274 52021
cycle: 6

Station Type Date Time Source
KDMA TAF 2019/06/16 06:12 UTC NOAA

TAF TAF KDMA 160601Z 1606/1712 14006KT 9999 SKC QNH2989INS
BECMG 1617/1618 24009KT 9999 SKC QNH2976INS
BECMG 1705/1706 VRB06KT 9999 SKC QNH2985INS TX39/1622Z TN16/1613Z

Example: see airport list